Bei Facebook empfehlenBei Twitter postenGoogle plusPinterest

Das Wetter im Erzgebirge am 11.11.2015

Wetter und Klima am 11.11.2015 Holzhau im Erzgebirge (630m ü.NN)
Letzte gemessene Temperatur und Uhrzeit der Messung23:59:00 Uhr6.60 °C
Temperatur (Maximum / Höchstwert) und Uhrzeit der Messung15:15:00 Uhr13.20 °C
Temperatur (Minimum / Tiefstwert) und Uhrzeit der Messung22:30:004.40 °C
Errechneter Absolutwert der Temperaturschwankungen zwischen Tmin und Tmax des Tages8.80 K
Errechnete Tagesmitteltemperatur10.19479 °C
Gesamt - Niederschlag des Tages (in flüssiger Form)0.52 Liter / m²
Luftdruck (Maximum / Höchstwert) und Zeitpunkt der Messung22:30:00 Uhr1020.80 hPa
Luftdruck (Minimum / Tiefstwert) und Zeitpunkt der Messung05:45:00 Uhr1017.80 hPa
Errechneter Absolutwert der Luftdruckschwankungen des Tages3.00 hPa
Höchste gemessene Windgeschwindigkeit und Uhrzeit der Messung19:45:00 Uhr183.60 km/h
Errechnete Windhäufigkeit in Relation zu den Messwerten des Tages32.29167 %
Niedrigste Windkühle (Windchill) und Zeitpunkt der Messung19:45:00 Uhr-0.90 °C
Taupunkt (Maximum / Höchstwert) und Uhrzeit der Messung15:15:00 Uhr11.80 °C
Taupunkt (Minimum / Tiefstwert) und Uhrzeit der Messung22:30:003.40 °C
Anzahl der automatisch eingelesenen Messwerte 192

Detaillierte Wetter- und Klima- Messwerte für den 11.11.2015 in Holzhau im Erzgebirge (630m ü.NN)
ZeitTemperaturLuftdruckRel. LuftfeuchteWindWindrichtungWindchillTaupunktNiederschlag l/m²
23:59:006.60 °C1020.40 hPa94.00 %9.00 km/hWNW4.80 °C5.70 °C0.52
23:45:006.50 °C1020.50 hPa94.00 %5.60 °C0.52
23:44:006.50 °C1020.50 hPa94.00 %5.60 °C0.52
23:30:006.40 °C1020.40 hPa94.00 %5.50 °C0.52
23:29:006.40 °C1020.40 hPa94.00 %5.50 °C0.52
23:15:006.30 °C1020.50 hPa94.00 %5.40 °C0.52
23:14:006.30 °C1020.50 hPa94.00 %5.40 °C0.52
23:00:006.10 °C1020.50 hPa94.00 %5.20 °C0.52
22:59:006.10 °C1020.50 hPa94.00 %5.20 °C0.52
22:45:005.40 °C1020.70 hPa94.00 %4.50 °C0.52
22:44:005.40 °C1020.70 hPa94.00 %4.50 °C0.52
22:30:004.40 °C1020.80 hPa93.00 %3.40 °C0.52
22:29:004.40 °C1020.80 hPa93.00 %3.40 °C0.52
22:15:004.50 °C1020.60 hPa93.00 %3.50 °C0.52
22:14:004.50 °C1020.60 hPa93.00 %3.50 °C0.52
22:00:004.90 °C1020.40 hPa93.00 %3.90 °C0.52
21:59:004.90 °C1020.40 hPa93.00 %3.90 °C0.52
21:45:005.20 °C1020.20 hPa93.00 %4.20 °C0.52
21:44:005.20 °C1020.20 hPa93.00 %4.20 °C0.52
21:30:005.20 °C1020.00 hPa93.00 %4.20 °C0.52
21:29:005.20 °C1020.00 hPa93.00 %4.20 °C0.52
21:15:005.50 °C1019.60 hPa93.00 %4.50 °C0.52
21:14:005.50 °C1019.60 hPa93.00 %4.50 °C0.52
21:00:005.90 °C1019.60 hPa93.00 %4.90 °C0.52
20:59:005.90 °C1019.60 hPa93.00 %4.90 °C0.52
20:45:006.10 °C1019.60 hPa93.00 %5.10 °C0.52
20:44:006.10 °C1019.60 hPa93.00 %5.10 °C0.52
20:30:006.20 °C1019.40 hPa93.00 %5.20 °C0.52
20:29:006.20 °C1019.40 hPa93.00 %5.20 °C0.52
20:15:006.60 °C1019.40 hPa92.00 %5.40 °C0.52
20:14:006.60 °C1019.40 hPa92.00 %5.40 °C0.52
20:00:007.40 °C1019.70 hPa92.00 %6.20 °C0.52
19:59:007.40 °C1019.70 hPa92.00 %6.20 °C0.52
19:45:007.90 °C1019.80 hPa93.00 %183.60 km/hS-0.90 °C6.80 °C0.52
19:44:007.90 °C1019.80 hPa93.00 %183.60 km/hS-0.90 °C6.80 °C0.52
19:30:008.30 °C1019.60 hPa92.00 %7.10 °C0.52
19:29:008.30 °C1019.60 hPa92.00 %7.10 °C0.52
19:15:008.70 °C1019.60 hPa92.00 %7.50 °C0.52
19:14:008.70 °C1019.60 hPa92.00 %7.50 °C0.52
19:00:008.90 °C1019.80 hPa92.00 %5.76 km/hWSW8.30 °C7.70 °C0.52
18:59:008.90 °C1019.80 hPa92.00 %5.76 km/hWSW8.30 °C7.70 °C0.52
18:45:009.30 °C1019.50 hPa92.00 %8.10 °C0.52
18:44:009.30 °C1019.50 hPa92.00 %8.10 °C0.52
18:30:009.50 °C1019.60 hPa92.00 %5.04 km/hWNW9.20 °C8.30 °C0.52
18:29:009.50 °C1019.60 hPa92.00 %5.04 km/hWNW9.20 °C8.30 °C0.52
18:15:009.60 °C1019.60 hPa92.00 %4.68 km/hWNW9.60 °C8.40 °C0.52
18:14:009.60 °C1019.60 hPa92.00 %4.68 km/hWNW9.60 °C8.40 °C0.52
18:00:009.90 °C1019.60 hPa92.00 %1.80 km/hW9.90 °C8.70 °C0.52
17:59:009.90 °C1019.60 hPa92.00 %1.80 km/hW9.90 °C8.70 °C0.52
17:45:0010.00 °C1019.80 hPa91.00 %8.60 °C0.52
17:44:0010.00 °C1019.80 hPa91.00 %8.60 °C0.52
17:30:009.90 °C1019.80 hPa91.00 %8.50 °C0.52
17:29:009.90 °C1019.80 hPa91.00 %8.50 °C0.52
17:15:0010.10 °C1019.70 hPa90.00 %8.50 °C0.52
17:14:0010.10 °C1019.70 hPa90.00 %8.50 °C0.52
17:00:0010.40 °C1019.60 hPa90.00 %8.80 °C0.52
16:59:0010.40 °C1019.60 hPa90.00 %8.80 °C0.52
16:45:0010.60 °C1019.60 hPa90.00 %9.00 °C0.52
16:44:0010.60 °C1019.60 hPa90.00 %9.00 °C0.52
16:30:0010.60 °C1019.50 hPa90.00 %9.00 °C0.52
16:29:0010.60 °C1019.50 hPa90.00 %9.00 °C0.52
16:15:0011.00 °C1019.50 hPa90.00 %9.40 °C0.52
16:14:0011.00 °C1019.50 hPa90.00 %9.40 °C0.52
16:00:0011.50 °C1019.50 hPa90.00 %9.90 °C0.52
15:59:0011.50 °C1019.50 hPa90.00 %9.90 °C0.52
15:45:0012.10 °C1019.50 hPa90.00 %10.50 °C0.52
15:44:0012.10 °C1019.50 hPa90.00 %10.50 °C0.52
15:30:0012.80 °C1019.40 hPa90.00 %11.20 °C0.52
15:29:0012.80 °C1019.40 hPa90.00 %11.20 °C0.52
15:15:0013.20 °C1019.40 hPa91.00 %11.80 °C0.52
15:14:0013.20 °C1019.40 hPa91.00 %11.80 °C0.52
15:00:0013.10 °C1019.50 hPa91.00 %2.16 km/hWSW13.10 °C11.70 °C0.52
14:59:0013.10 °C1019.50 hPa91.00 %2.16 km/hWSW13.10 °C11.70 °C0.52
14:45:0013.10 °C1019.50 hPa92.00 %11.80 °C0.52
14:44:0013.10 °C1019.50 hPa92.00 %11.80 °C0.52
14:30:0012.80 °C1019.50 hPa93.00 %11.70 °C0.52
14:29:0012.80 °C1019.50 hPa93.00 %11.70 °C0.52
14:15:0012.60 °C1019.60 hPa93.00 %11.50 °C0.52
14:14:0012.60 °C1019.60 hPa93.00 %11.50 °C0.52
14:00:0012.40 °C1019.50 hPa93.00 %11.30 °C0.52
13:59:0012.40 °C1019.50 hPa93.00 %11.30 °C0.52
13:45:0012.40 °C1019.50 hPa93.00 %1.44 km/hW12.40 °C11.30 °C0.52
13:44:0012.40 °C1019.50 hPa93.00 %1.44 km/hW12.40 °C11.30 °C0.52
13:30:0012.10 °C1019.60 hPa94.00 %11.20 °C0.52
13:29:0012.10 °C1019.60 hPa94.00 %11.20 °C0.52
13:15:0011.90 °C1019.90 hPa94.00 %11.00 °C0.52
13:14:0011.90 °C1019.90 hPa94.00 %11.00 °C0.52
13:00:0011.80 °C1020.00 hPa94.00 %3.24 km/hWNW11.80 °C10.90 °C0.52
12:59:0011.80 °C1020.00 hPa94.00 %3.24 km/hWNW11.80 °C10.90 °C0.52
12:45:0011.80 °C1020.30 hPa94.00 %10.90 °C0.52
12:44:0011.80 °C1020.30 hPa94.00 %10.90 °C0.52
12:30:0011.80 °C1020.20 hPa94.00 %10.90 °C0.52
12:29:0011.80 °C1020.20 hPa94.00 %10.90 °C0.52
12:15:0011.80 °C1020.40 hPa94.00 %4.32 km/hNW11.80 °C10.90 °C0.52
12:14:0011.80 °C1020.40 hPa94.00 %4.32 km/hNW11.80 °C10.90 °C0.52
12:00:0011.60 °C1020.30 hPa95.00 %16.20 km/hNW9.80 °C10.80 °C0.52
11:59:0011.60 °C1020.30 hPa95.00 %16.20 km/hNW9.80 °C10.80 °C0.52
11:45:0011.40 °C1020.30 hPa95.00 %10.60 °C0.52
11:44:0011.40 °C1020.30 hPa95.00 %10.60 °C0.52
11:30:0011.30 °C1020.10 hPa95.00 %10.50 °C0.52
11:29:0011.30 °C1020.10 hPa95.00 %10.50 °C0.52
11:15:0011.30 °C1020.20 hPa95.00 %14.04 km/hWSW9.60 °C10.50 °C0.52
11:14:0011.30 °C1020.20 hPa95.00 %14.04 km/hWSW9.60 °C10.50 °C0.52
11:00:0011.20 °C1020.30 hPa95.00 %10.40 °C0.52
10:59:0011.20 °C1020.30 hPa95.00 %10.40 °C0.52
10:45:0011.10 °C1020.20 hPa95.00 %10.30 °C0.52
10:44:0011.10 °C1020.20 hPa95.00 %10.30 °C0.52
10:30:0010.90 °C1020.10 hPa95.00 %10.10 °C0.52
10:29:0010.90 °C1020.10 hPa95.00 %10.10 °C0.52
10:15:0010.90 °C1020.10 hPa95.00 %10.10 °C0.52
10:14:0010.90 °C1020.10 hPa95.00 %10.10 °C0.52
10:00:0010.70 °C1020.10 hPa95.00 %9.90 °C0.52
09:59:0010.70 °C1020.10 hPa95.00 %9.90 °C0.52
09:45:0010.50 °C1019.80 hPa95.00 %2.52 km/hNNW10.50 °C9.70 °C0.52
09:44:0010.50 °C1019.80 hPa95.00 %2.52 km/hNNW10.50 °C9.70 °C0.52
09:30:0010.40 °C1019.70 hPa95.00 %9.60 °C0.52
09:29:0010.40 °C1019.70 hPa95.00 %9.60 °C0.52
09:15:0010.40 °C1019.50 hPa95.00 %9.60 °C0.52
09:14:0010.40 °C1019.50 hPa95.00 %9.60 °C0.52
09:00:0010.40 °C1019.10 hPa95.00 %9.60 °C0.52
08:59:0010.40 °C1019.10 hPa95.00 %9.60 °C0.52
08:45:0010.50 °C1018.90 hPa95.00 %9.70 °C0.52
08:44:0010.50 °C1018.90 hPa95.00 %9.70 °C0.52
08:30:0010.50 °C1018.80 hPa95.00 %3.96 km/hWNW10.50 °C9.70 °C0.52
08:29:0010.50 °C1018.80 hPa95.00 %3.96 km/hWNW10.50 °C9.70 °C0.52
08:15:0010.60 °C1018.70 hPa95.00 %9.80 °C 
08:14:0010.60 °C1018.70 hPa95.00 %9.80 °C 
08:00:0010.80 °C1018.60 hPa95.00 %3.24 km/hNNW10.80 °C10.00 °C 
07:59:0010.80 °C1018.60 hPa95.00 %3.24 km/hNNW10.80 °C10.00 °C 
07:45:0010.90 °C1018.50 hPa95.00 %10.10 °C 
07:44:0010.90 °C1018.50 hPa95.00 %10.10 °C 
07:30:0011.00 °C1018.30 hPa95.00 %11.88 km/hNNW9.50 °C10.20 °C 
07:29:0011.00 °C1018.30 hPa95.00 %11.88 km/hNNW9.50 °C10.20 °C 
07:15:0011.10 °C1018.20 hPa95.00 %10.30 °C 
07:14:0011.10 °C1018.20 hPa95.00 %10.30 °C 
07:00:0011.10 °C1018.20 hPa95.00 %6.12 km/hWNW10.70 °C10.30 °C 
06:59:0011.10 °C1018.20 hPa95.00 %6.12 km/hWNW10.70 °C10.30 °C 
06:45:0011.30 °C1018.10 hPa95.00 %10.50 °C 
06:44:0011.30 °C1018.10 hPa95.00 %10.50 °C 
06:30:0011.30 °C1017.90 hPa95.00 %10.50 °C 
06:29:0011.30 °C1017.90 hPa95.00 %10.50 °C 
06:15:0011.30 °C1018.10 hPa95.00 %9.00 km/hWNW10.40 °C10.50 °C 
06:14:0011.30 °C1018.10 hPa95.00 %9.00 km/hWNW10.40 °C10.50 °C 
06:00:0011.20 °C1017.90 hPa95.00 %10.80 km/hNW9.90 °C10.40 °C 
05:59:0011.20 °C1017.90 hPa95.00 %10.80 km/hNW9.90 °C10.40 °C 
05:45:0011.20 °C1017.80 hPa95.00 %10.40 °C 
05:44:0011.20 °C1017.80 hPa95.00 %10.40 °C 
05:30:0011.20 °C1017.90 hPa95.00 %2.52 km/hNW11.20 °C10.40 °C 
05:29:0011.20 °C1017.90 hPa95.00 %2.52 km/hNW11.20 °C10.40 °C 
05:15:0011.30 °C1017.90 hPa95.00 %10.50 °C 
05:14:0011.30 °C1017.90 hPa95.00 %10.50 °C 
05:00:0011.30 °C1017.90 hPa95.00 %6.84 km/hW10.80 °C10.50 °C 
04:59:0011.30 °C1017.90 hPa95.00 %6.84 km/hW10.80 °C10.50 °C 
04:45:0011.30 °C1017.90 hPa95.00 %1.80 km/hW11.30 °C10.50 °C 
04:44:0011.30 °C1017.90 hPa95.00 %1.80 km/hW11.30 °C10.50 °C 
04:30:0011.20 °C1017.80 hPa95.00 %5.04 km/hNNW11.10 °C10.40 °C 
04:29:0011.20 °C1017.80 hPa95.00 %5.04 km/hNNW11.10 °C10.40 °C 
04:15:0011.30 °C1017.90 hPa95.00 %9.72 km/hWSW10.20 °C10.50 °C 
04:14:0011.30 °C1017.90 hPa95.00 %9.72 km/hWSW10.20 °C10.50 °C 
04:00:0011.30 °C1017.90 hPa95.00 %10.50 °C 
03:59:0011.30 °C1017.90 hPa95.00 %10.50 °C 
03:45:0011.30 °C1017.80 hPa95.00 %10.50 °C 
03:44:0011.30 °C1017.80 hPa95.00 %10.50 °C 
03:30:0011.30 °C1017.90 hPa95.00 %10.50 °C 
03:29:0011.30 °C1017.90 hPa95.00 %10.50 °C 
03:15:0011.30 °C1017.80 hPa94.00 %10.40 °C 
03:14:0011.30 °C1017.80 hPa94.00 %10.40 °C 
03:00:0011.30 °C1018.00 hPa94.00 %3.24 km/hWNW11.30 °C10.40 °C 
02:59:0011.30 °C1018.00 hPa94.00 %3.24 km/hWNW11.30 °C10.40 °C 
02:45:0011.30 °C1018.00 hPa94.00 %10.40 °C 
02:44:0011.30 °C1018.00 hPa94.00 %10.40 °C 
02:30:0011.30 °C1018.00 hPa94.00 %3.60 km/hW11.30 °C10.40 °C 
02:29:0011.30 °C1018.00 hPa94.00 %3.60 km/hW11.30 °C10.40 °C 
02:15:0011.30 °C1018.30 hPa94.00 %10.40 °C 
02:14:0011.30 °C1018.30 hPa94.00 %10.40 °C 
02:00:0011.30 °C1018.10 hPa94.00 %3.96 km/hW11.30 °C10.40 °C 
01:59:0011.30 °C1018.10 hPa94.00 %3.96 km/hW11.30 °C10.40 °C 
01:45:0011.40 °C1018.20 hPa94.00 %10.50 °C 
01:44:0011.40 °C1018.20 hPa94.00 %10.50 °C 
01:30:0011.50 °C1018.00 hPa94.00 %2.16 km/hWNW11.50 °C10.60 °C 
01:29:0011.50 °C1018.00 hPa94.00 %2.16 km/hWNW11.50 °C10.60 °C 
01:15:0011.60 °C1017.90 hPa94.00 %10.70 °C 
01:14:0011.60 °C1017.90 hPa94.00 %10.70 °C 
01:00:0011.60 °C1018.30 hPa94.00 %2.52 km/hW11.60 °C10.70 °C 
00:59:0011.60 °C1018.30 hPa94.00 %2.52 km/hW11.60 °C10.70 °C 
00:45:0011.60 °C1018.20 hPa94.00 %7.56 km/hWNW11.00 °C10.70 °C 
00:44:0011.60 °C1018.20 hPa94.00 %7.56 km/hWNW11.00 °C10.70 °C 
00:30:0011.60 °C1018.00 hPa94.00 %10.70 °C 
00:29:0011.60 °C1018.00 hPa94.00 %10.70 °C 
00:15:0011.60 °C1018.00 hPa94.00 %3.24 km/hWNW11.60 °C10.70 °C 
00:14:0011.60 °C1018.00 hPa94.00 %3.24 km/hWNW11.60 °C10.70 °C 
00:00:0011.60 °C1018.10 hPa94.00 %4.32 km/hWNW11.60 °C10.70 °C 

Permanenter Link zu dieser Seite: Wetter im Erzgebirge am 11.11.2015
Performance-Info: Die Erstellung der Seite / Statistik(en) / Tabelle(n) erforderte 5 Datenbankserver-Abfrage(n) und dauerte 101 Millisekunden. (Dieser Messwert ist von der Gesamt-Auslastung des Servers abhängig.)
Erzgebirge - Wetter | Erzgebirge - Wetter (Mobilgeräte) | Komplette Klimadatenbank